createdAt,value
2023-03-18T00:05:20.367Z,4.80
2023-03-18T00:10:24.171Z,4.75
2023-03-18T00:15:40.827Z,4.72
2023-03-18T00:20:54.709Z,4.68
2023-03-18T00:26:10.820Z,4.65
2023-03-18T00:31:40.822Z,4.62
2023-03-18T00:36:57.078Z,4.59
2023-03-18T00:42:26.808Z,4.54
2023-03-18T00:47:47.323Z,4.49
2023-03-18T00:53:14.603Z,4.45
2023-03-18T00:58:39.422Z,4.42
2023-03-18T01:03:59.641Z,4.40
2023-03-18T01:09:23.567Z,4.36
2023-03-18T01:14:27.940Z,4.33
2023-03-18T01:19:55.278Z,4.32
2023-03-18T01:25:18.934Z,4.31
2023-03-18T01:30:26.649Z,4.27
2023-03-18T01:35:31.030Z,4.26
2023-03-18T01:40:40.771Z,4.25
2023-03-18T01:45:57.471Z,4.23
2023-03-18T01:52:11.673Z,4.20
2023-03-18T01:57:17.523Z,4.20
2023-03-18T02:02:34.287Z,4.17
2023-03-18T02:08:03.873Z,4.15
2023-03-18T02:13:27.761Z,4.13
2023-03-18T02:18:47.484Z,4.11
2023-03-18T02:24:24.131Z,4.09
2023-03-18T02:29:45.651Z,4.05
2023-03-18T02:35:14.512Z,4.01
2023-03-18T02:40:27.357Z,3.98
2023-03-18T02:45:55.822Z,3.95
2023-03-18T02:51:10.283Z,3.92
2023-03-18T02:56:25.130Z,3.89
2023-03-18T03:01:40.844Z,3.86
2023-03-18T03:06:47.229Z,3.83
2023-03-18T03:12:37.908Z,3.80
2023-03-18T03:18:04.912Z,3.76
2023-03-18T03:23:11.282Z,3.72
2023-03-18T03:29:15.394Z,3.71
2023-03-18T03:34:38.470Z,3.69
2023-03-18T03:40:02.313Z,3.66
2023-03-18T03:45:26.374Z,3.65
2023-03-18T03:50:33.458Z,3.63
2023-03-18T03:56:00.264Z,3.62
2023-03-18T04:01:06.937Z,3.61
2023-03-18T04:06:27.978Z,3.57
2023-03-18T04:11:48.893Z,3.56
2023-03-18T04:17:08.390Z,3.54
2023-03-18T04:22:52.680Z,3.51
2023-03-18T04:28:41.691Z,3.48
2023-03-18T04:34:25.710Z,3.47
2023-03-18T04:39:49.922Z,3.47
2023-03-18T04:45:15.711Z,3.45
2023-03-18T04:50:30.108Z,3.43
2023-03-18T04:55:34.188Z,3.41
2023-03-18T05:01:25.705Z,3.40
2023-03-18T05:06:35.760Z,3.42
2023-03-18T05:12:02.932Z,3.44
2023-03-18T05:17:23.376Z,3.48
2023-03-18T05:22:34.481Z,3.60
2023-03-18T05:27:59.644Z,3.76
2023-03-18T05:33:23.407Z,3.98
2023-03-18T05:38:35.266Z,4.29
2023-03-18T05:43:59.142Z,4.67
2023-03-18T05:49:03.318Z,5.39
2023-03-18T05:54:12.744Z,6.38
2023-03-18T05:59:19.059Z,7.84
2023-03-18T06:04:27.204Z,9.52
2023-03-18T06:09:31.177Z,10.95
2023-03-18T06:14:35.610Z,11.72
2023-03-18T06:19:39.874Z,12.25
2023-03-18T06:24:46.550Z,12.47
2023-03-18T06:29:52.706Z,13.07
2023-03-18T06:34:56.885Z,13.62
2023-03-18T06:40:00.763Z,13.53
2023-03-18T06:45:04.603Z,13.00
2023-03-18T06:50:18.943Z,12.19
2023-03-18T06:55:22.390Z,12.09
2023-03-18T07:00:26.216Z,11.66
2023-03-18T07:05:30.986Z,11.57
2023-03-18T07:10:35.276Z,11.36
2023-03-18T07:15:46.836Z,11.29
2023-03-18T07:20:50.791Z,11.27
2023-03-18T07:25:54.829Z,10.89
2023-03-18T07:30:58.257Z,10.71
2023-03-18T07:36:02.453Z,10.52
2023-03-18T07:41:06.321Z,10.36
2023-03-18T07:46:09.944Z,10.40
2023-03-18T07:51:13.569Z,10.36
2023-03-18T07:56:17.321Z,10.11
2023-03-18T08:01:20.931Z,9.92
2023-03-18T08:06:25.484Z,9.86
2023-03-18T08:11:29.149Z,9.89
2023-03-18T08:16:32.638Z,9.86
2023-03-18T08:21:57.612Z,9.89
2023-03-18T08:27:01.132Z,9.95
2023-03-18T08:32:08.608Z,9.99
2023-03-18T08:37:12.258Z,10.00
2023-03-18T08:42:16.224Z,10.12
2023-03-18T08:47:20.262Z,10.17
2023-03-18T08:52:23.894Z,10.27
2023-03-18T08:57:28.093Z,10.37
2023-03-18T09:02:31.900Z,10.53
2023-03-18T09:07:36.398Z,10.67
2023-03-18T09:12:43.884Z,10.76
2023-03-18T09:18:03.760Z,10.89
2023-03-18T09:23:14.109Z,11.07
2023-03-18T09:28:18.075Z,11.10
2023-03-18T09:33:22.399Z,11.16
2023-03-18T09:38:28.149Z,11.26
2023-03-18T09:43:47.132Z,11.27
2023-03-18T09:48:57.018Z,11.29
2023-03-18T09:54:24.399Z,11.33
2023-03-18T09:59:50.885Z,11.39
2023-03-18T10:05:02.034Z,11.43
2023-03-18T10:10:42.504Z,11.48
2023-03-18T10:15:49.337Z,11.61
2023-03-18T10:21:10.620Z,11.73
2023-03-18T10:26:24.387Z,11.80
2023-03-18T10:31:51.067Z,11.90
2023-03-18T10:37:06.971Z,11.98
2023-03-18T10:42:19.846Z,12.03
2023-03-18T10:47:29.231Z,12.12
2023-03-18T10:52:39.992Z,12.21
2023-03-18T10:57:43.274Z,12.30
2023-03-18T11:02:47.475Z,12.42
2023-03-18T11:08:03.706Z,12.54
2023-03-18T11:13:07.701Z,12.71
2023-03-18T11:18:19.501Z,12.74
2023-03-18T11:24:21.032Z,12.75
2023-03-18T11:29:33.228Z,12.90
2023-03-18T11:34:37.815Z,12.94
2023-03-18T11:39:41.762Z,13.05
2023-03-18T11:44:45.291Z,13.09
2023-03-18T11:49:48.509Z,13.14
2023-03-18T11:55:08.265Z,13.24
2023-03-18T12:00:43.888Z,13.21
2023-03-18T12:06:13.249Z,13.22
2023-03-18T12:11:38.665Z,13.30
2023-03-18T12:16:48.910Z,13.32
2023-03-18T12:22:04.374Z,13.32
2023-03-18T12:27:13.752Z,13.36
2023-03-18T12:32:32.086Z,13.36
2023-03-18T12:38:06.446Z,13.40
2023-03-18T12:43:29.093Z,13.49
2023-03-18T12:48:52.385Z,13.55
2023-03-18T12:54:01.029Z,13.65
2023-03-18T12:59:16.713Z,13.61
2023-03-18T13:04:23.437Z,13.54
2023-03-18T13:09:37.280Z,13.59
2023-03-18T13:15:12.793Z,13.68
2023-03-18T13:20:18.672Z,13.69
2023-03-18T13:25:33.652Z,13.71
2023-03-18T13:30:55.555Z,13.67
2023-03-18T13:36:22.546Z,13.60
2023-03-18T13:42:03.235Z,13.53
2023-03-18T13:47:09.320Z,13.50
2023-03-18T13:52:39.780Z,13.46
2023-03-18T13:57:48.079Z,13.45
2023-03-18T14:03:17.577Z,13.41
2023-03-18T14:08:47.475Z,13.37
2023-03-18T14:13:52.854Z,13.30
2023-03-18T14:18:58.829Z,13.29
2023-03-18T14:24:17.283Z,13.37
2023-03-18T14:29:26.717Z,13.44
2023-03-18T14:34:33.323Z,13.53
2023-03-18T14:39:48.522Z,13.53
2023-03-18T14:44:55.020Z,13.50
2023-03-18T14:50:14.960Z,13.47
2023-03-18T14:55:27.260Z,13.39
2023-03-18T15:00:35.539Z,13.29
2023-03-18T15:05:42.181Z,13.18
2023-03-18T15:10:49.811Z,13.11
2023-03-18T15:15:56.570Z,13.04
2023-03-18T15:21:04.335Z,12.97
2023-03-18T15:26:09.938Z,12.88
2023-03-18T15:31:14.037Z,12.82
2023-03-18T15:36:17.410Z,12.76
2023-03-18T15:41:22.764Z,12.71
2023-03-18T15:46:31.097Z,12.65
2023-03-18T15:51:42.325Z,12.59
2023-03-18T15:56:49.260Z,12.51
2023-03-18T16:01:54.906Z,12.43
2023-03-18T16:06:59.588Z,12.38
2023-03-18T16:12:13.999Z,12.33
2023-03-18T16:17:22.302Z,12.26
2023-03-18T16:22:35.957Z,12.18
2023-03-18T16:27:44.887Z,12.09
2023-03-18T16:32:48.413Z,12.01
2023-03-18T16:38:13.428Z,11.93
2023-03-18T16:43:19.870Z,11.83
2023-03-18T16:48:23.768Z,11.76
2023-03-18T16:53:29.768Z,11.68
2023-03-18T16:58:35.429Z,11.61
2023-03-18T17:03:42.844Z,11.55
2023-03-18T17:08:46.167Z,11.48
2023-03-18T17:13:49.392Z,11.43
2023-03-18T17:18:55.061Z,11.38
2023-03-18T17:23:58.916Z,11.32
2023-03-18T17:29:26.534Z,11.28
2023-03-18T17:34:29.813Z,11.22
2023-03-18T17:39:36.700Z,11.17
2023-03-18T17:44:39.814Z,11.13
2023-03-18T17:49:43.131Z,11.08
2023-03-18T17:54:47.162Z,11.03
2023-03-18T17:59:51.684Z,10.97
2023-03-18T18:04:54.895Z,10.91
2023-03-18T18:10:00.989Z,10.86
2023-03-18T18:15:05.998Z,10.80
2023-03-18T18:20:15.406Z,10.73
2023-03-18T18:25:21.835Z,10.65
2023-03-18T18:30:26.308Z,10.58
2023-03-18T18:35:29.575Z,10.52
2023-03-18T18:40:32.902Z,10.47
2023-03-18T18:45:36.489Z,10.40
2023-03-18T18:50:41.549Z,10.34
2023-03-18T18:55:45.029Z,10.25
2023-03-18T19:00:51.400Z,10.19
2023-03-18T19:05:55.500Z,10.14
2023-03-18T19:11:01.646Z,10.12
2023-03-18T19:16:13.802Z,10.07
2023-03-18T19:21:17.342Z,10.03
2023-03-18T19:26:21.681Z,9.97
2023-03-18T19:31:30.825Z,9.93
2023-03-18T19:36:41.746Z,9.89
2023-03-18T19:41:47.288Z,9.85
2023-03-18T19:46:53.991Z,9.82
2023-03-18T19:51:57.622Z,9.78
2023-03-18T19:57:09.813Z,9.73
2023-03-18T20:02:33.542Z,9.70
2023-03-18T20:07:37.249Z,9.67
2023-03-18T20:12:47.769Z,9.64
2023-03-18T20:17:55.290Z,9.60
2023-03-18T20:23:02.000Z,9.58
2023-03-18T20:28:07.250Z,9.55
2023-03-18T20:33:13.331Z,9.52
2023-03-18T20:38:49.828Z,9.49
2023-03-18T20:43:53.258Z,9.44
2023-03-18T20:48:57.995Z,9.38
2023-03-18T20:54:01.506Z,9.32
2023-03-18T20:59:35.171Z,9.23
2023-03-18T21:04:38.715Z,9.16
2023-03-18T21:09:43.383Z,9.10
2023-03-18T21:14:56.902Z,9.04
2023-03-18T21:20:15.243Z,8.99
2023-03-18T21:26:02.271Z,8.92
2023-03-18T21:31:16.569Z,8.88
2023-03-18T21:36:30.206Z,8.85
2023-03-18T21:41:34.224Z,8.79
2023-03-18T21:46:37.833Z,8.74
2023-03-18T21:51:41.793Z,8.69
2023-03-18T21:56:45.584Z,8.62
2023-03-18T22:01:49.216Z,8.58
2023-03-18T22:06:52.646Z,8.54
2023-03-18T22:11:55.897Z,8.52
2023-03-18T22:16:59.217Z,8.47
2023-03-18T22:22:02.704Z,8.40
2023-03-18T22:27:06.593Z,8.33
2023-03-18T22:33:17.667Z,8.29
2023-03-18T22:38:23.232Z,8.24
2023-03-18T22:43:37.647Z,8.18
2023-03-18T22:48:41.225Z,8.10
2023-03-18T22:53:51.306Z,8.02
2023-03-18T22:58:55.032Z,7.95
2023-03-18T23:03:58.994Z,7.86
2023-03-18T23:09:02.845Z,7.78
2023-03-18T23:14:07.371Z,7.74
2023-03-18T23:19:10.740Z,7.69
2023-03-18T23:24:15.563Z,7.63
2023-03-18T23:29:30.162Z,7.55
2023-03-18T23:34:33.458Z,7.50
2023-03-18T23:39:57.235Z,7.43
2023-03-18T23:45:00.942Z,7.37
2023-03-18T23:50:07.651Z,7.31
2023-03-18T23:55:32.699Z,7.27
